createdAt,value
2023-01-10T00:02:24.771Z,3.66
2023-01-10T00:04:55.900Z,3.66
2023-01-10T00:07:23.951Z,3.68
2023-01-10T00:09:53.084Z,3.56
2023-01-10T00:12:44.813Z,3.44
2023-01-10T00:15:13.944Z,3.35
2023-01-10T00:17:43.715Z,3.64
2023-01-10T00:20:13.177Z,3.81
2023-01-10T00:22:41.212Z,4.02
2023-01-10T00:25:09.527Z,3.98
2023-01-10T00:27:37.718Z,4.09
2023-01-10T00:30:14.180Z,4.03
2023-01-10T00:32:46.325Z,4.27
2023-01-10T00:35:14.693Z,4.39
2023-01-10T00:37:45.377Z,4.34
2023-01-10T00:40:15.177Z,4.33
2023-01-10T00:43:00.663Z,4.45
2023-01-10T00:45:28.655Z,4.54
2023-01-10T00:47:58.049Z,4.56
2023-01-10T00:50:27.007Z,4.69
2023-01-10T00:52:55.973Z,4.73
2023-01-10T00:55:26.059Z,4.70
2023-01-10T00:57:56.170Z,4.75
2023-01-10T01:00:24.338Z,4.81
2023-01-10T01:03:02.102Z,4.85
2023-01-10T01:05:32.189Z,4.89
2023-01-10T01:08:00.161Z,4.90
2023-01-10T01:10:28.376Z,4.92
2023-01-10T01:12:57.814Z,4.87
2023-01-10T01:15:27.255Z,4.91
2023-01-10T01:17:56.411Z,4.91
2023-01-10T01:20:26.997Z,4.86
2023-01-10T01:22:54.903Z,4.81
2023-01-10T01:25:25.105Z,4.79
2023-01-10T01:27:53.018Z,4.73
2023-01-10T01:30:20.902Z,4.63
2023-01-10T01:32:49.810Z,4.55
2023-01-10T01:35:18.487Z,4.55
2023-01-10T01:37:48.022Z,4.54
2023-01-10T01:40:17.608Z,4.35
2023-01-10T01:42:46.810Z,4.33
2023-01-10T01:45:35.404Z,4.19
2023-01-10T01:48:15.964Z,3.96
2023-01-10T01:50:48.049Z,3.98
2023-01-10T01:53:26.807Z,3.96
2023-01-10T01:55:57.672Z,4.17
2023-01-10T01:58:32.556Z,4.19
2023-01-10T02:01:00.957Z,4.20
2023-01-10T02:03:30.216Z,4.20
2023-01-10T02:05:58.886Z,4.20
2023-01-10T02:08:28.361Z,4.28
2023-01-10T02:11:08.572Z,4.24
2023-01-10T02:13:43.636Z,4.30
2023-01-10T02:16:13.849Z,4.54
2023-01-10T02:18:52.761Z,4.67
2023-01-10T02:22:04.397Z,4.76
2023-01-10T02:25:06.407Z,4.73
2023-01-10T02:27:52.213Z,4.69
2023-01-10T02:30:55.789Z,4.55
2023-01-10T02:34:05.231Z,4.47
2023-01-10T02:36:45.576Z,4.29
2023-01-10T02:39:20.476Z,4.28
2023-01-10T02:41:55.388Z,4.21
2023-01-10T02:44:29.207Z,4.29
2023-01-10T02:46:57.408Z,4.39
2023-01-10T02:49:25.402Z,4.50
2023-01-10T02:51:54.905Z,4.43
2023-01-10T02:54:27.506Z,4.54
2023-01-10T02:57:17.038Z,4.50
2023-01-10T03:00:32.082Z,4.57
2023-01-10T03:03:21.823Z,4.60
2023-01-10T03:06:00.284Z,4.64
2023-01-10T03:08:36.641Z,4.67
2023-01-10T03:11:06.861Z,4.74
2023-01-10T03:13:42.815Z,4.74
2023-01-10T03:16:16.231Z,4.86
2023-01-10T03:18:49.763Z,4.86
2023-01-10T03:21:22.683Z,4.86
2023-01-10T03:23:55.637Z,4.85
2023-01-10T03:26:30.570Z,4.83
2023-01-10T03:29:06.700Z,4.82
2023-01-10T03:31:41.305Z,4.71
2023-01-10T03:34:10.455Z,4.88
2023-01-10T03:36:47.339Z,4.91
2023-01-10T03:39:23.728Z,4.97
2023-01-10T03:42:00.338Z,4.96
2023-01-10T03:44:45.285Z,4.99
2023-01-10T03:47:22.916Z,4.92
2023-01-10T03:49:56.280Z,4.93
2023-01-10T03:52:26.120Z,4.96
2023-01-10T03:55:00.009Z,4.96
2023-01-10T03:57:28.356Z,4.94
2023-01-10T03:59:58.290Z,4.95
2023-01-10T04:02:28.405Z,5.04
2023-01-10T04:04:56.347Z,5.08
2023-01-10T04:07:24.417Z,5.14
2023-01-10T04:09:52.475Z,5.18
2023-01-10T04:12:23.013Z,5.18
2023-01-10T04:14:50.951Z,5.07
2023-01-10T04:17:21.653Z,5.04
2023-01-10T04:19:49.737Z,4.95
2023-01-10T04:22:17.835Z,4.85
2023-01-10T04:24:47.151Z,4.85
2023-01-10T04:27:15.246Z,4.86
2023-01-10T04:29:44.854Z,4.77
2023-01-10T04:32:13.252Z,4.93
2023-01-10T04:34:41.160Z,4.99
2023-01-10T04:37:09.300Z,5.05
2023-01-10T04:39:37.302Z,5.04
2023-01-10T04:42:06.396Z,5.05
2023-01-10T04:44:35.421Z,5.11
2023-01-10T04:47:04.801Z,5.15
2023-01-10T04:49:32.751Z,5.19
2023-01-10T04:52:00.860Z,5.19
2023-01-10T04:54:29.812Z,5.21
2023-01-10T04:56:58.206Z,5.18
2023-01-10T04:59:27.454Z,5.12
2023-01-10T05:01:55.768Z,5.17
2023-01-10T05:04:25.272Z,5.15
2023-01-10T05:06:53.203Z,5.17
2023-01-10T05:09:21.290Z,5.23
2023-01-10T05:11:49.540Z,5.24
2023-01-10T05:14:17.577Z,5.31
2023-01-10T05:16:46.622Z,5.31
2023-01-10T05:19:14.587Z,5.35
2023-01-10T05:21:43.914Z,5.34
2023-01-10T05:24:11.991Z,5.42
2023-01-10T05:26:39.852Z,5.50
2023-01-10T05:29:07.811Z,5.39
2023-01-10T05:31:35.920Z,5.46
2023-01-10T05:34:03.931Z,5.42
2023-01-10T05:36:31.946Z,5.43
2023-01-10T05:39:01.219Z,5.48
2023-01-10T05:41:29.115Z,5.55
2023-01-10T05:43:56.937Z,5.50
2023-01-10T05:46:25.091Z,5.51
2023-01-10T05:48:58.395Z,5.48
2023-01-10T05:51:26.372Z,5.57
2023-01-10T05:53:55.508Z,5.56
2023-01-10T05:56:24.857Z,5.42
2023-01-10T05:59:04.398Z,5.44
2023-01-10T06:01:33.537Z,5.46
2023-01-10T06:04:01.415Z,5.40
2023-01-10T06:06:29.374Z,5.36
2023-01-10T06:08:59.066Z,5.33
2023-01-10T06:11:30.167Z,5.29
2023-01-10T06:13:58.684Z,5.30
2023-01-10T06:16:26.844Z,5.20
2023-01-10T06:18:54.784Z,5.09
2023-01-10T06:21:25.977Z,5.18
2023-01-10T06:23:57.295Z,5.07
2023-01-10T06:26:36.608Z,4.94
2023-01-10T06:29:05.746Z,4.91
2023-01-10T06:31:33.874Z,4.85
2023-01-10T06:34:04.731Z,4.82
2023-01-10T06:36:52.583Z,4.75
2023-01-10T06:39:26.074Z,4.69
2023-01-10T06:41:55.546Z,4.72
2023-01-10T06:44:23.941Z,4.70
2023-01-10T06:46:51.926Z,4.71
2023-01-10T06:49:20.027Z,4.73
2023-01-10T06:51:48.148Z,4.81
2023-01-10T06:54:16.945Z,4.82
2023-01-10T06:56:45.129Z,4.89
2023-01-10T06:59:14.455Z,4.79
2023-01-10T07:01:42.461Z,4.94
2023-01-10T07:04:10.413Z,4.99
2023-01-10T07:06:38.586Z,4.97
2023-01-10T07:09:06.898Z,5.12
2023-01-10T07:11:36.548Z,5.09
2023-01-10T07:14:05.103Z,5.20
2023-01-10T07:16:34.445Z,5.20
2023-01-10T07:19:02.503Z,5.20
2023-01-10T07:21:30.537Z,5.28
2023-01-10T07:24:00.533Z,5.30
2023-01-10T07:26:30.326Z,5.37
2023-01-10T07:28:58.497Z,5.39
2023-01-10T07:31:26.644Z,5.41
2023-01-10T07:33:56.043Z,5.34
2023-01-10T07:36:24.189Z,5.31
2023-01-10T07:38:54.544Z,5.27
2023-01-10T07:41:22.785Z,5.31
2023-01-10T07:43:55.371Z,5.15
2023-01-10T07:46:23.742Z,5.23
2023-01-10T07:48:52.134Z,5.27
2023-01-10T07:51:21.831Z,5.29
2023-01-10T07:53:50.292Z,5.18
2023-01-10T07:56:18.575Z,5.27
2023-01-10T07:58:48.917Z,5.34
2023-01-10T08:01:18.125Z,5.29
2023-01-10T08:03:46.649Z,5.30
2023-01-10T08:06:16.780Z,5.28
2023-01-10T08:09:06.467Z,5.20
2023-01-10T08:11:37.131Z,5.08
2023-01-10T08:14:05.185Z,5.06
2023-01-10T08:16:42.117Z,4.88
2023-01-10T08:19:18.019Z,4.93
2023-01-10T08:22:26.914Z,4.93
2023-01-10T08:25:00.409Z,4.94
2023-01-10T08:27:41.207Z,4.77
2023-01-10T08:30:23.971Z,4.87
2023-01-10T08:33:12.408Z,4.85
2023-01-10T08:35:44.437Z,4.89
2023-01-10T08:38:13.620Z,5.07
2023-01-10T08:46:27.151Z,5.16
2023-01-10T08:49:23.159Z,5.31
2023-01-10T08:51:52.626Z,5.34
2023-01-10T08:54:20.932Z,5.47
2023-01-10T08:56:51.601Z,5.50
2023-01-10T08:59:22.835Z,5.64
2023-01-10T09:01:59.156Z,5.60
2023-01-10T09:04:38.774Z,5.68
2023-01-10T09:13:19.068Z,5.68
2023-01-10T09:19:12.733Z,5.76
2023-01-10T09:22:08.532Z,5.95
2023-01-10T09:24:39.625Z,5.74
2023-01-10T09:27:12.161Z,5.80
2023-01-10T09:29:48.280Z,5.99
2023-01-10T09:32:20.929Z,5.77
2023-01-10T09:35:21.728Z,5.87
2023-01-10T09:37:51.274Z,5.88
2023-01-10T09:40:29.204Z,5.86
2023-01-10T09:43:25.450Z,5.97
2023-01-10T09:46:03.462Z,5.90
2023-01-10T09:48:41.057Z,5.86
2023-01-10T09:51:26.140Z,5.79
2023-01-10T09:54:11.015Z,6.06
2023-01-10T09:56:41.902Z,6.09
2023-01-10T09:59:17.024Z,6.31
2023-01-10T10:01:47.703Z,6.21
2023-01-10T10:04:24.889Z,6.25
2023-01-10T10:06:55.386Z,6.34
2023-01-10T10:09:28.459Z,6.42
2023-01-10T10:12:09.974Z,6.49
2023-01-10T10:14:54.061Z,6.50
2023-01-10T10:17:39.691Z,6.49
2023-01-10T10:20:21.566Z,6.51
2023-01-10T10:23:04.796Z,6.56
2023-01-10T10:25:52.661Z,6.55
2023-01-10T10:28:55.124Z,6.60
2023-01-10T10:31:46.864Z,6.67
2023-01-10T10:34:38.914Z,6.74
2023-01-10T10:37:33.097Z,6.53
2023-01-10T10:40:08.231Z,6.69
2023-01-10T10:42:47.918Z,6.76
2023-01-10T10:45:39.665Z,6.87
2023-01-10T10:48:18.630Z,6.78
2023-01-10T10:50:56.842Z,6.76
2023-01-10T10:53:24.827Z,6.78
2023-01-10T10:55:54.825Z,6.68
2023-01-10T10:58:22.848Z,6.84
2023-01-10T11:00:51.106Z,6.78
2023-01-10T11:03:30.269Z,6.80
2023-01-10T11:05:59.203Z,6.86
2023-01-10T11:08:29.787Z,6.92
2023-01-10T11:11:02.766Z,7.02
2023-01-10T11:13:45.833Z,6.94
2023-01-10T11:16:29.108Z,6.78
2023-01-10T11:19:20.263Z,6.95
2023-01-10T11:21:52.120Z,6.90
2023-01-10T11:24:24.590Z,6.88
2023-01-10T11:26:54.235Z,6.84
2023-01-10T11:29:27.232Z,6.80
2023-01-10T11:31:57.899Z,6.87
2023-01-10T11:34:30.912Z,6.77
2023-01-10T11:37:01.749Z,6.82
2023-01-10T11:39:34.392Z,6.82
2023-01-10T11:42:29.916Z,6.79
2023-01-10T11:45:23.185Z,6.79
2023-01-10T11:47:55.744Z,6.63
2023-01-10T11:50:27.678Z,6.76
2023-01-10T11:52:57.109Z,6.72
2023-01-10T11:55:31.212Z,6.63
2023-01-10T11:58:05.430Z,6.71
2023-01-10T12:00:41.723Z,6.63
2023-01-10T12:03:21.832Z,6.66
2023-01-10T12:05:55.436Z,6.67
2023-01-10T12:08:32.520Z,6.62
2023-01-10T12:11:10.087Z,6.64
2023-01-10T12:13:52.385Z,6.52
2023-01-10T12:16:24.403Z,6.55
2023-01-10T12:18:54.460Z,6.51
2023-01-10T12:21:30.595Z,6.52
2023-01-10T12:24:02.460Z,6.44
2023-01-10T12:26:33.758Z,6.52
2023-01-10T12:29:10.123Z,6.56
2023-01-10T12:31:40.832Z,6.44
2023-01-10T12:34:20.009Z,6.53
2023-01-10T12:36:59.449Z,6.51
2023-01-10T12:39:33.462Z,6.59
2023-01-10T12:42:35.719Z,6.54
2023-01-10T12:45:10.844Z,6.53
2023-01-10T12:47:49.935Z,6.52
2023-01-10T12:50:23.131Z,6.52
2023-01-10T12:52:59.182Z,6.51
2023-01-10T12:55:31.148Z,6.52
2023-01-10T12:58:02.814Z,6.42
2023-01-10T13:00:47.807Z,6.51
2023-01-10T13:03:22.139Z,6.53
2023-01-10T13:05:53.008Z,6.52
2023-01-10T13:08:25.096Z,6.57
2023-01-10T13:10:56.765Z,6.57
2023-01-10T13:13:33.874Z,6.57
2023-01-10T13:16:17.527Z,6.51
2023-01-10T13:19:02.067Z,6.51
2023-01-10T13:21:31.228Z,6.43
2023-01-10T13:24:02.007Z,6.56
2023-01-10T13:26:49.584Z,6.48
2023-01-10T13:29:20.583Z,6.44
2023-01-10T13:31:57.155Z,6.43
2023-01-10T13:34:28.922Z,6.39
2023-01-10T13:36:59.477Z,6.25
2023-01-10T13:39:35.820Z,6.31
2023-01-10T13:42:47.184Z,6.22
2023-01-10T13:45:27.000Z,6.22
2023-01-10T13:48:02.221Z,6.07
2023-01-10T13:51:08.245Z,6.15
2023-01-10T13:53:45.306Z,6.11
2023-01-10T13:56:37.535Z,6.12
2023-01-10T13:59:29.714Z,6.05
2023-01-10T14:02:19.401Z,6.04
2023-01-10T14:04:56.448Z,5.97
2023-01-10T14:07:29.401Z,5.96
2023-01-10T14:10:06.991Z,5.96
2023-01-10T14:12:39.911Z,6.02
2023-01-10T14:15:22.644Z,6.03
2023-01-10T14:17:58.080Z,5.94
2023-01-10T14:20:29.231Z,5.93
2023-01-10T14:23:03.949Z,5.99
2023-01-10T14:25:34.909Z,5.98
2023-01-10T14:28:05.565Z,5.99
2023-01-10T14:30:36.009Z,5.90
2023-01-10T14:33:08.827Z,5.92
2023-01-10T14:35:44.041Z,6.00
2023-01-10T14:38:20.232Z,5.88
2023-01-10T14:40:59.021Z,6.02
2023-01-10T14:43:31.385Z,6.05
2023-01-10T14:46:06.051Z,6.08
2023-01-10T14:48:55.239Z,6.08
2023-01-10T14:51:36.462Z,6.07
2023-01-10T14:54:31.324Z,6.13
2023-01-10T14:57:20.750Z,6.14
2023-01-10T15:00:04.937Z,6.14
2023-01-10T15:02:46.291Z,6.15
2023-01-10T15:05:37.145Z,6.19
2023-01-10T15:08:30.344Z,6.20
2023-01-10T15:11:04.030Z,6.05
2023-01-10T15:13:38.178Z,6.13
2023-01-10T15:16:09.268Z,6.11
2023-01-10T15:18:44.396Z,6.04
2023-01-10T15:21:13.612Z,6.12
2023-01-10T15:23:46.452Z,6.14
2023-01-10T15:26:18.445Z,5.98
2023-01-10T15:28:50.445Z,6.02
2023-01-10T15:31:20.781Z,6.11
2023-01-10T15:33:57.384Z,6.12
2023-01-10T15:36:31.858Z,6.14
2023-01-10T15:39:03.824Z,6.15
2023-01-10T15:41:38.891Z,6.15
2023-01-10T15:44:38.389Z,6.17
2023-01-10T15:47:45.547Z,6.17
2023-01-10T15:50:25.197Z,6.16
2023-01-10T15:52:58.508Z,6.21
2023-01-10T15:55:50.469Z,6.19
2023-01-10T15:58:28.677Z,6.12
2023-01-10T16:01:05.557Z,6.07
2023-01-10T16:03:37.019Z,6.14
2023-01-10T16:06:10.026Z,6.09
2023-01-10T16:08:40.473Z,6.01
2023-01-10T16:11:41.468Z,5.93
2023-01-10T16:14:08.907Z,5.95
2023-01-10T16:16:37.496Z,5.80
2023-01-10T16:19:06.253Z,5.89
2023-01-10T16:21:37.619Z,5.81
2023-01-10T16:24:08.019Z,5.79
2023-01-10T16:26:39.330Z,5.79
2023-01-10T16:29:07.478Z,5.78
2023-01-10T16:31:35.652Z,5.75
2023-01-10T16:34:03.898Z,5.71
2023-01-10T16:36:31.766Z,5.68
2023-01-10T16:39:00.269Z,5.68
2023-01-10T16:41:45.721Z,5.66
2023-01-10T16:44:14.937Z,5.64
2023-01-10T16:46:43.610Z,5.65
2023-01-10T16:49:18.178Z,5.66
2023-01-10T16:51:46.924Z,5.63
2023-01-10T16:54:27.911Z,5.59
2023-01-10T16:56:56.211Z,5.62
2023-01-10T16:59:26.612Z,5.60
2023-01-10T17:02:30.340Z,5.42
2023-01-10T17:05:01.381Z,5.50
2023-01-10T17:07:34.683Z,5.59
2023-01-10T17:10:02.812Z,5.65
2023-01-10T17:12:37.978Z,5.63
2023-01-10T17:15:14.182Z,5.62
2023-01-10T17:17:45.454Z,5.69
2023-01-10T17:20:15.346Z,5.68
2023-01-10T17:22:44.171Z,5.62
2023-01-10T17:25:17.141Z,5.69
2023-01-10T17:27:45.674Z,5.67
2023-01-10T17:30:15.949Z,5.68
2023-01-10T17:32:43.903Z,5.67
2023-01-10T17:35:11.983Z,5.68
2023-01-10T17:37:42.663Z,5.65
2023-01-10T17:40:12.658Z,5.67
2023-01-10T17:42:41.329Z,5.60
2023-01-10T17:45:10.472Z,5.63
2023-01-10T17:47:44.157Z,5.66
2023-01-10T17:50:12.163Z,5.66
2023-01-10T17:52:40.485Z,5.68
2023-01-10T17:55:10.734Z,5.56
2023-01-10T17:57:42.281Z,5.62
2023-01-10T18:00:14.294Z,5.59
2023-01-10T18:02:44.272Z,5.70
2023-01-10T18:05:13.434Z,5.66
2023-01-10T18:07:47.305Z,5.69
2023-01-10T18:10:43.953Z,5.51
2023-01-10T18:13:29.568Z,5.68
2023-01-10T18:16:12.716Z,5.70
2023-01-10T18:18:43.388Z,5.61
2023-01-10T18:21:16.316Z,5.61
2023-01-10T18:23:50.799Z,5.68
2023-01-10T18:26:21.412Z,5.67
2023-01-10T18:28:52.927Z,5.61
2023-01-10T18:31:22.128Z,5.67
2023-01-10T18:33:54.094Z,5.56
2023-01-10T18:36:28.707Z,5.60
2023-01-10T18:38:59.556Z,5.67
2023-01-10T18:41:27.987Z,5.51
2023-01-10T18:43:57.868Z,5.65
2023-01-10T18:46:29.035Z,5.57
2023-01-10T18:49:13.777Z,5.64
2023-01-10T18:51:44.206Z,5.62
2023-01-10T18:54:12.441Z,5.69
2023-01-10T18:56:42.104Z,5.69
2023-01-10T18:59:24.833Z,5.68
2023-01-10T19:01:54.863Z,5.74
2023-01-10T19:04:25.744Z,5.69
2023-01-10T19:07:04.788Z,5.69
2023-01-10T19:09:55.170Z,5.76
2023-01-10T19:12:39.606Z,5.72
2023-01-10T19:15:18.016Z,5.80
2023-01-10T19:18:34.627Z,5.76
2023-01-10T19:21:17.163Z,5.82
2023-01-10T19:23:49.445Z,5.72
2023-01-10T19:26:33.296Z,5.86
2023-01-10T19:29:12.700Z,5.86
2023-01-10T19:31:53.915Z,5.89
2023-01-10T19:34:25.297Z,5.78
2023-01-10T19:37:01.853Z,5.78
2023-01-10T19:39:33.284Z,5.88
2023-01-10T19:42:03.526Z,5.85
2023-01-10T19:44:31.637Z,5.91
2023-01-10T19:47:00.320Z,5.98
2023-01-10T19:49:36.404Z,5.87
2023-01-10T19:52:15.593Z,6.00
2023-01-10T19:54:45.958Z,5.87
2023-01-10T19:57:14.678Z,6.05
2023-01-10T19:59:46.761Z,6.03
2023-01-10T20:02:14.804Z,5.98
2023-01-10T20:04:43.133Z,6.05
2023-01-10T20:07:24.932Z,6.13
2023-01-10T20:09:58.799Z,6.11
2023-01-10T20:12:28.890Z,6.17
2023-01-10T20:14:58.416Z,6.05
2023-01-10T20:20:05.259Z,6.18
2023-01-10T20:22:49.593Z,6.13
2023-01-10T20:25:20.237Z,6.29
2023-01-10T20:27:49.427Z,6.35
2023-01-10T20:30:19.335Z,6.31
2023-01-10T20:32:53.165Z,6.35
2023-01-10T20:35:31.061Z,6.25
2023-01-10T20:38:22.246Z,6.42
2023-01-10T20:41:21.497Z,6.45
2023-01-10T20:50:21.892Z,6.50
2023-01-10T20:52:57.334Z,6.38
2023-01-10T20:55:46.840Z,6.52
2023-01-10T20:58:31.530Z,6.51
2023-01-10T21:01:01.324Z,6.66
2023-01-10T21:03:36.484Z,6.66
2023-01-10T21:06:05.987Z,6.68
2023-01-10T21:08:39.660Z,6.77
2023-01-10T21:11:23.321Z,6.86
2023-01-10T21:13:55.505Z,6.90
2023-01-10T21:16:26.610Z,6.92
2023-01-10T21:18:56.504Z,6.94
2023-01-10T21:21:29.564Z,6.88
2023-01-10T21:24:09.564Z,7.00
2023-01-10T21:26:52.950Z,7.03
2023-01-10T21:35:34.129Z,7.05
2023-01-10T21:38:07.271Z,6.99
2023-01-10T21:44:40.219Z,7.15
2023-01-10T21:47:40.637Z,7.14
2023-01-10T21:53:58.440Z,7.21
2023-01-10T21:59:41.800Z,7.23
2023-01-10T22:02:29.203Z,7.31
2023-01-10T22:04:58.344Z,7.23
2023-01-10T22:07:31.492Z,7.30
2023-01-10T22:09:59.807Z,7.39
2023-01-10T22:12:28.895Z,7.31
2023-01-10T22:14:58.335Z,7.32
2023-01-10T22:20:15.338Z,7.47
2023-01-10T22:22:52.356Z,7.46
2023-01-10T22:25:23.146Z,7.37
2023-01-10T22:27:53.576Z,7.46
2023-01-10T22:30:24.226Z,7.58
2023-01-10T22:32:59.770Z,7.55
2023-01-10T22:35:28.084Z,7.64
2023-01-10T22:37:58.229Z,7.70
2023-01-10T22:40:27.181Z,7.74
2023-01-10T22:43:00.964Z,7.63
2023-01-10T22:45:31.835Z,7.70
2023-01-10T22:48:05.236Z,7.74
2023-01-10T22:50:39.785Z,7.83
2023-01-10T22:53:18.938Z,7.76
2023-01-10T22:56:17.690Z,7.69
2023-01-10T22:58:59.273Z,7.80
2023-01-10T23:01:34.046Z,7.90
2023-01-10T23:04:22.678Z,7.93
2023-01-10T23:06:56.834Z,7.86
2023-01-10T23:09:31.285Z,7.92
2023-01-10T23:12:06.022Z,7.81
2023-01-10T23:14:41.451Z,7.94
2023-01-10T23:17:10.995Z,7.99
2023-01-10T23:19:56.501Z,8.04
2023-01-10T23:22:35.300Z,7.96
2023-01-10T23:25:58.863Z,8.06
2023-01-10T23:28:33.588Z,8.01
2023-01-10T23:31:21.832Z,8.07
2023-01-10T23:33:53.233Z,8.11
2023-01-10T23:37:02.312Z,7.99
2023-01-10T23:39:34.196Z,8.19
2023-01-10T23:42:12.172Z,8.16
2023-01-10T23:44:44.769Z,8.13
2023-01-10T23:47:13.126Z,8.30
2023-01-10T23:49:42.243Z,8.37
2023-01-10T23:52:29.125Z,8.33
2023-01-10T23:55:01.191Z,8.31
2023-01-10T23:57:29.668Z,8.29
